.
WxDataArchive / Data Records for 2014-06-22
2014-06-21 June 2014 2014-06-23

Data Records for Sunday, 22 June 2014

Time	Temp	Chill	HIndex	Humid	Dewpt	 Wind 	HiWind	WindDir	Rain 	Barom
-----	----	-----	------	-----	-----	------	------	-------	-----	-----
00:00	70.3	70.3	70.3	91	67.5	0	0	---	0.00	29.892 
00:05	70.3	70.3	70.3	91	67.5	0	0	---	0.00	29.892 
00:10	70.3	70.3	70.3	92	67.9	0	0	---	0.00	29.892 
00:15	70.3	70.3	70.3	92	67.9	0	0	---	0.00	29.889 
00:20	70.3	70.3	70.3	92	67.9	0	0	---	0.00	29.889 
00:25	70.3	70.3	70.3	92	67.9	0	0	---	0.00	29.889 
00:30	70.3	70.3	70.3	92	67.9	0	1	270	0.00	29.894 
00:35	69.9	69.9	69.9	92	67.5	0	1	270	0.01	29.894 
00:40	69.8	69.8	69.8	92	67.4	0	0	---	0.01	29.894 
00:45	69.8	69.8	69.8	92	67.4	0	2	270	0.01	29.892 
00:50	69.8	69.8	69.8	92	67.4	0	2	270	0.01	29.892 
00:55	69.6	69.6	69.6	92	67.2	0	1	270	0.00	29.892 
01:00	69.3	69.3	69.3	92	66.9	0	0	---	0.00	29.886 
01:05	68.9	68.9	68.9	92	66.5	0	1	270	0.01	29.886 
01:10	68.8	68.8	68.8	92	66.4	0	0	---	0.00	29.886 
01:15	68.4	68.4	68.4	92	66.0	0	0	---	0.00	29.870 
01:20	68.1	68.1	68.1	92	65.7	0	0	---	0.00	29.870 
01:25	67.9	67.9	67.9	92	65.5	0	1	270	0.00	29.870 
01:30	67.8	67.8	67.8	92	65.4	0	0	---	0.00	29.883 
01:35	67.8	67.8	67.8	92	65.4	0	0	---	0.00	29.883 
01:40	67.6	67.6	67.6	92	65.2	0	0	---	0.00	29.883 
01:45	67.6	67.6	67.6	92	65.2	0	0	---	0.00	29.872 
01:50	67.6	67.6	67.6	92	65.2	0	0	---	0.00	29.872 
01:55	67.6	67.6	67.6	92	65.2	0	0	---	0.00	29.872 
02:00	67.4	67.4	67.4	92	65.0	0	0	---	0.00	29.875 
02:05	67.4	67.4	67.4	93	65.3	0	0	---	0.00	29.875 
02:10	67.4	67.4	67.4	93	65.3	0	0	---	0.00	29.875 
02:15	67.6	67.6	67.6	93	65.5	0	0	---	0.00	29.880 
02:20	67.6	67.6	67.6	93	65.5	0	0	---	0.00	29.880 
02:25	67.6	67.6	67.6	93	65.5	0	0	---	0.00	29.880 
02:30	67.6	67.6	67.6	93	65.5	0	0	---	0.00	29.887 
02:35	67.6	67.6	67.6	93	65.5	0	0	---	0.00	29.887 
02:40	67.6	67.6	67.6	93	65.5	0	0	---	0.01	29.887 
02:45	67.6	67.6	67.6	94	65.8	0	1	270	0.00	29.873 
02:50	67.6	67.6	67.6	94	65.8	0	0	---	0.00	29.873 
02:55	67.6	67.6	67.6	94	65.8	0	0	---	0.00	29.873 
03:00	67.6	67.6	67.6	94	65.8	0	1	270	0.00	29.873 
03:05	67.6	67.6	67.6	94	65.8	0	0	---	0.00	29.873 
03:10	67.6	67.6	67.6	94	65.8	0	0	---	0.00	29.873 
03:15	67.6	67.6	67.6	94	65.8	0	1	270	0.00	29.862 
03:20	67.4	67.4	67.4	94	65.6	1	3	270	0.00	29.862 
03:25	67.3	67.3	67.3	94	65.5	0	1	270	0.00	29.862 
03:30	67.1	67.1	67.1	94	65.3	0	1	270	0.00	29.863 
03:35	66.8	66.8	66.8	94	65.0	0	0	---	0.00	29.863 
03:40	66.6	66.6	66.6	93	64.5	0	0	---	0.00	29.863 
03:45	66.4	66.4	66.4	94	64.6	0	2	270	0.01	29.886 
03:50	66.4	66.4	66.4	94	64.6	0	1	270	0.00	29.886 
03:55	66.4	66.4	66.4	94	64.6	0	0	---	0.01	29.886 
04:00	66.4	66.4	66.4	94	64.6	0	0	---	0.03	29.889 
04:05	66.4	66.4	66.4	94	64.6	0	0	---	0.01	29.889 
04:10	66.3	66.3	66.3	94	64.5	0	1	270	0.02	29.889 
04:15	66.1	66.1	66.1	94	64.3	0	0	---	0.04	29.894 
04:20	66.0	66.0	66.0	94	64.2	0	0	---	0.05	29.894 
04:25	65.8	65.8	65.8	94	64.0	0	1	270	0.08	29.894 
04:30	65.8	65.8	65.8	94	64.0	0	0	---	0.02	29.894 
04:35	65.6	65.6	65.6	94	63.8	0	1	270	0.07	29.894 
04:40	65.5	65.5	65.5	94	63.7	0	0	---	0.03	29.894 
04:45	65.5	65.5	65.5	94	63.7	0	1	270	0.06	29.890 
04:50	65.3	65.3	65.3	94	63.5	0	0	---	0.02	29.890 
04:55	65.2	65.2	65.2	94	63.4	0	0	---	0.01	29.890 
05:00	65.2	65.2	65.2	94	63.4	0	0	---	0.03	29.902 
05:05	65.0	65.0	65.0	94	63.2	0	1	270	0.07	29.902 
05:10	65.0	65.0	65.0	95	63.5	0	2	270	0.02	29.902 
05:15	65.0	65.0	65.0	95	63.5	1	3	270	0.03	29.888 
05:20	64.8	64.8	64.8	95	63.3	0	0	---	0.05	29.888 
05:25	64.8	64.8	64.8	95	63.3	0	0	---	0.06	29.888 
05:30	65.0	65.0	65.0	95	63.5	1	2	270	0.02	29.882 
05:35	64.8	64.8	64.8	95	63.3	0	1	270	0.01	29.882 
05:40	64.8	64.8	64.8	95	63.3	0	0	---	0.00	29.882 
05:45	65.0	65.0	65.0	95	63.5	0	1	270	0.00	29.883 
05:50	65.2	65.2	65.2	95	63.7	0	1	270	0.01	29.883 
05:55	65.3	65.3	65.3	96	64.1	0	1	270	0.01	29.883 
06:00	65.5	65.5	65.5	96	64.3	0	0	---	0.01	29.881 
06:05	65.6	65.6	65.6	96	64.4	0	1	270	0.00	29.881 
06:10	65.8	65.8	65.8	96	64.6	0	1	270	0.00	29.881 
06:15	66.0	66.0	66.0	96	64.8	0	0	---	0.00	29.875 
06:20	66.1	66.1	66.1	96	64.9	0	2	270	0.00	29.875 
06:25	66.3	66.3	66.3	96	65.1	0	1	270	0.00	29.875 
06:30	66.3	66.3	66.3	96	65.1	0	0	---	0.00	29.881 
06:35	66.3	66.3	66.3	96	65.1	0	0	---	0.00	29.881 
06:40	66.4	66.4	66.4	96	65.2	0	0	---	0.00	29.881 
06:45	66.4	66.4	66.4	96	65.2	0	0	---	0.00	29.887 
06:50	66.4	66.4	66.4	96	65.2	0	1	270	0.00	29.887 
06:55	66.4	66.4	66.4	96	65.2	0	0	---	0.00	29.887 
07:00	66.3	66.3	66.3	96	65.1	0	0	---	0.00	29.890 
07:05	66.4	66.4	66.4	96	65.2	0	1	270	0.00	29.890 
07:10	66.4	66.4	66.4	96	65.2	0	0	---	0.00	29.890 
07:15	66.4	66.4	66.4	96	65.2	0	0	---	0.00	29.889 
07:20	66.4	66.4	66.4	96	65.2	0	2	270	0.00	29.889 
07:25	66.4	66.4	66.4	96	65.2	0	3	22	0.00	29.889 
07:30	66.4	66.4	66.4	96	65.2	0	2	22	0.00	29.892 
07:35	66.4	66.4	66.4	96	65.2	0	2	22	0.00	29.892 
07:40	66.4	66.4	66.4	96	65.2	0	0	---	0.00	29.892 
07:45	66.6	66.6	66.6	96	65.4	1	3	22	0.00	29.895 
07:50	66.6	66.6	66.6	96	65.4	0	0	---	0.00	29.895 
07:55	66.6	66.6	66.6	96	65.4	0	2	135	0.00	29.895 
08:00	66.4	66.4	66.4	96	65.2	0	2	135	0.00	29.902 
08:05	66.4	66.4	66.4	96	65.2	0	2	135	0.00	29.902 
08:10	66.3	66.3	66.3	96	65.1	0	2	135	0.00	29.902 
08:15	66.3	66.3	66.3	96	65.1	0	2	135	0.00	29.905 
08:20	66.3	66.3	66.3	96	65.1	0	1	135	0.00	29.905 
08:25	66.3	66.3	66.3	96	65.1	0	0	---	0.00	29.905 
08:30	66.1	66.1	66.1	96	64.9	0	2	135	0.00	29.906 
08:35	66.0	66.0	66.0	96	64.8	0	1	135	0.00	29.906 
08:40	66.0	66.0	66.0	96	64.8	0	1	135	0.00	29.906 
08:45	66.0	66.0	66.0	96	64.8	0	2	135	0.00	29.907 
08:50	66.0	66.0	66.0	96	64.8	0	2	135	0.00	29.907 
08:55	65.8	65.8	65.8	96	64.6	0	2	135	0.00	29.907 
09:00	65.8	65.8	65.8	96	64.6	1	3	90	0.00	29.908 
09:05	65.8	65.8	65.8	96	64.6	0	1	90	0.00	29.908 
09:10	66.0	66.0	66.0	96	64.8	0	3	90	0.00	29.908 
09:15	66.0	66.0	66.0	96	64.8	1	4	90	0.00	29.912 
09:20	66.0	66.0	66.0	95	64.5	1	2	90	0.00	29.912 
09:25	66.1	66.1	66.1	95	64.6	0	1	90	0.00	29.912 
09:30	66.3	66.3	66.3	95	64.8	0	3	90	0.00	29.918 
09:35	66.4	66.4	66.4	95	64.9	0	2	90	0.00	29.918 
09:40	66.4	66.4	66.4	95	64.9	0	3	90	0.00	29.918 
09:45	66.6	66.6	66.6	95	65.1	0	1	90	0.00	29.920 
09:50	66.8	66.8	66.8	95	65.3	0	1	90	0.00	29.920 
09:55	66.9	66.9	66.9	95	65.4	0	2	90	0.00	29.920 
10:00	67.1	67.1	67.1	94	65.3	0	2	90	0.00	29.918 
10:05	67.3	67.3	67.3	94	65.5	0	2	45	0.00	29.918 
10:10	67.6	67.6	67.6	94	65.8	0	2	45	0.00	29.918 
10:15	67.8	67.8	67.8	94	66.0	1	4	45	0.00	29.915 
10:20	67.8	67.8	67.8	93	65.7	1	5	68	0.00	29.915 
10:25	68.1	68.1	68.1	93	66.0	1	4	68	0.00	29.915 
10:30	68.3	68.3	68.3	92	65.9	1	4	68	0.00	29.913 
10:35	68.8	68.8	68.8	92	66.4	1	5	68	0.00	29.913 
10:40	69.3	69.3	69.3	91	66.6	1	3	68	0.00	29.913 
10:45	69.6	69.6	69.6	89	66.2	0	3	68	0.00	29.913 
10:50	69.6	69.6	69.6	89	66.2	1	3	68	0.00	29.913 
10:55	69.8	69.8	69.8	88	66.1	1	4	68	0.00	29.913 
11:00	69.9	69.9	69.9	88	66.2	1	2	68	0.00	29.910 
11:05	70.1	70.1	70.1	88	66.4	0	3	68	0.00	29.910 
11:10	70.1	70.1	70.1	87	66.0	1	3	68	0.00	29.910 
11:15	70.1	70.1	70.1	87	66.0	1	4	68	0.00	29.910 
11:20	70.3	70.3	70.3	87	66.2	1	3	68	0.00	29.910 
11:25	70.6	70.6	70.6	87	66.5	1	3	68	0.00	29.910 
11:30	71.5	71.5	71.5	86	67.1	1	3	68	0.00	29.907 
11:35	72.3	72.3	72.3	85	67.5	0	3	68	0.00	29.907 
11:40	73.5	73.5	73.5	83	68.0	0	2	68	0.00	29.907 
11:45	73.9	73.9	73.9	81	67.7	1	3	68	0.00	29.906 
11:50	74.4	74.4	74.4	79	67.4	0	1	68	0.00	29.906 
11:55	74.6	74.6	74.6	79	67.6	1	5	68	0.00	29.906 
12:00	75.3	75.3	76.3	77	67.6	0	3	68	0.00	29.905 
12:05	75.8	75.8	76.9	78	68.4	0	2	68	0.00	29.905 
12:10	76.3	76.3	77.8	74	67.4	1	3	68	0.00	29.905 
12:15	76.3	76.3	77.7	75	67.8	2	5	68	0.00	29.903 
12:20	76.3	76.3	77.7	75	67.8	1	5	68	0.00	29.903 
12:25	76.1	76.1	77.5	75	67.6	0	2	135	0.00	29.903 
12:30	76.3	76.3	77.6	77	68.5	0	2	135	0.00	29.914 
12:35	76.3	76.3	77.7	75	67.8	1	3	135	0.00	29.914 
12:40	76.3	76.3	77.7	76	68.2	1	4	135	0.00	29.914 
12:45	76.3	76.3	77.7	75	67.8	1	3	68	0.00	29.902 
12:50	76.5	76.5	78.0	76	68.4	1	3	158	0.00	29.902 
12:55	76.8	76.8	78.4	75	68.3	0	3	135	0.00	29.902 
13:00	76.8	76.8	78.4	76	68.6	1	3	90	0.00	29.902 
13:05	77.2	77.2	79.0	76	69.0	0	3	90	0.00	29.902 
13:10	77.2	77.2	79.0	75	68.6	1	5	90	0.00	29.902 
13:15	77.4	77.4	79.3	74	68.4	1	3	90	0.00	29.903 
13:20	77.7	77.7	79.7	73	68.3	1	2	22	0.00	29.903 
13:25	78.1	78.1	80.2	72	68.3	0	2	45	0.00	29.903 
13:30	78.1	78.1	80.3	74	69.1	1	3	90	0.00	29.901 
13:35	78.3	78.3	80.6	73	68.9	1	3	90	0.00	29.901 
13:40	78.1	78.1	80.3	73	68.7	2	6	90	0.00	29.901 
13:45	77.9	77.9	80.0	74	68.9	1	5	90	0.00	29.899 
13:50	78.1	78.1	80.3	74	69.1	1	3	90	0.00	29.899 
13:55	77.9	77.9	80.0	73	68.5	1	4	90	0.00	29.899 
14:00	78.1	78.1	80.3	73	68.7	1	5	90	0.00	29.889 
14:05	78.3	78.3	80.6	75	69.7	1	4	90	0.00	29.889 
14:10	78.8	78.8	81.3	73	69.4	1	4	90	0.00	29.889 
14:15	79.2	79.2	81.9	72	69.4	2	4	68	0.00	29.885 
14:20	79.6	79.6	82.5	72	69.8	0	2	68	0.00	29.885 
14:25	79.6	79.6	82.3	70	68.9	1	5	68	0.00	29.885 
14:30	79.8	79.8	82.6	70	69.1	1	3	135	0.00	29.883 
14:35	80.1	80.1	83.4	72	70.2	1	3	135	0.00	29.883 
14:40	80.5	80.5	83.9	71	70.2	0	2	135	0.00	29.883 
14:45	80.9	80.9	84.5	70	70.2	1	5	90	0.00	29.879 
14:50	80.7	80.7	84.1	70	70.0	2	6	90	0.00	29.879 
14:55	80.1	80.1	83.2	71	69.8	3	5	90	0.00	29.879 
15:00	80.1	80.1	83.2	71	69.8	1	4	90	0.00	29.869 
15:05	80.3	80.3	83.4	70	69.6	0	3	90	0.00	29.869 
15:10	80.3	80.3	83.4	70	69.6	2	5	90	0.00	29.869 
15:15	80.1	80.1	83.1	70	69.4	1	4	90	0.00	29.868 
15:20	80.3	80.3	83.4	70	69.6	1	2	90	0.00	29.868 
15:25	80.7	80.7	84.0	69	69.6	1	4	90	0.00	29.868 
15:30	80.9	80.9	84.3	69	69.8	1	4	90	0.00	29.866 
15:35	80.9	80.9	84.3	69	69.8	1	3	90	0.00	29.866 
15:40	80.9	80.9	84.6	71	70.6	1	4	90	0.00	29.866 
15:45	80.9	80.9	84.3	69	69.8	1	4	90	0.00	29.864 
15:50	80.7	80.7	84.0	69	69.6	2	5	68	0.00	29.864 
15:55	80.5	80.5	83.8	70	69.8	2	5	68	0.00	29.864 
16:00	80.1	80.1	83.0	69	69.0	2	5	90	0.00	29.854 
16:05	79.9	79.9	82.8	70	69.2	1	5	90	0.00	29.854 
16:10	80.1	80.1	83.2	71	69.8	1	5	90	0.00	29.854 
16:15	80.3	80.3	83.3	69	69.2	1	4	90	0.00	29.857 
16:20	79.9	79.9	82.7	69	68.8	2	4	90	0.00	29.857 
16:25	79.6	79.6	82.4	71	69.3	1	4	90	0.00	29.857 
16:30	79.4	79.4	82.0	70	68.7	2	4	90	0.00	29.854 
16:35	79.2	79.2	81.8	71	69.0	0	2	90	0.00	29.854 
16:40	79.2	79.2	81.8	71	69.0	2	6	90	0.00	29.854 
16:45	79.8	79.8	82.7	71	69.5	1	5	68	0.00	29.856 
16:50	80.3	80.3	83.3	69	69.2	1	3	68	0.00	29.856 
16:55	81.1	81.1	84.6	69	69.9	1	5	90	0.00	29.856 
17:00	81.2	81.2	84.5	67	69.2	2	5	112	0.00	29.853 
17:05	81.6	81.6	85.3	68	70.0	1	3	90	0.00	29.853 
17:10	81.6	81.6	84.9	66	69.1	2	5	112	0.00	29.853 
17:15	81.6	81.6	85.1	67	69.6	1	6	112	0.00	29.850 
17:20	81.2	81.2	84.6	68	69.6	3	6	90	0.00	29.850 
17:25	80.9	80.9	84.3	69	69.8	2	7	90	0.00	29.850 
17:30	80.5	80.5	83.8	70	69.8	3	7	90	0.00	29.839 
17:35	80.3	80.3	83.4	70	69.6	2	6	90	0.00	29.839 
17:40	79.9	79.9	82.7	69	68.8	3	7	90	0.00	29.839 
17:45	79.9	79.9	82.7	69	68.8	3	7	90	0.00	29.835 
17:50	79.8	79.8	82.5	69	68.7	3	9	90	0.00	29.835 
17:55	79.8	79.8	82.6	70	69.1	2	7	135	0.00	29.835 
18:00	79.8	79.8	82.5	69	68.7	2	5	112	0.00	29.836 
18:05	79.8	79.8	82.6	70	69.1	3	5	68	0.00	29.836 
18:10	79.6	79.6	82.2	69	68.5	1	6	112	0.00	29.836 
18:15	79.8	79.8	82.6	70	69.1	1	5	68	0.00	29.837 
18:20	79.8	79.8	82.4	68	68.3	2	6	68	0.00	29.837 
18:25	79.8	79.8	82.5	69	68.7	2	6	90	0.00	29.837 
18:30	79.6	79.6	82.2	69	68.5	2	5	135	0.00	29.839 
18:35	79.8	79.8	82.4	68	68.3	2	5	90	0.00	29.839 
18:40	79.6	79.6	82.1	68	68.1	2	4	68	0.00	29.839 
18:45	79.6	79.6	82.1	68	68.1	2	5	90	0.00	29.838 
18:50	79.6	79.6	82.1	68	68.1	2	7	90	0.00	29.838 
18:55	79.6	79.6	82.0	67	67.7	2	5	90	0.00	29.838 
19:00	79.4	79.4	81.8	68	67.9	3	7	68	0.00	29.831 
19:05	79.2	79.2	81.5	68	67.7	2	5	68	0.00	29.831 
19:10	79.2	79.2	81.5	68	67.7	2	6	68	0.00	29.831 
19:15	79.2	79.2	81.6	69	68.1	2	6	68	0.00	29.835 
19:20	79.0	79.0	81.2	67	67.1	2	7	90	0.00	29.835 
19:25	78.8	78.8	80.9	67	66.9	2	4	90	0.00	29.835 
19:30	78.6	78.6	80.7	68	67.1	2	5	68	0.00	29.840 
19:35	78.5	78.5	80.5	67	66.6	2	5	68	0.00	29.840 
19:40	78.5	78.5	80.6	68	67.0	2	6	112	0.00	29.840 
19:45	78.3	78.3	80.3	68	66.8	3	9	90	0.00	29.835 
19:50	78.1	78.1	80.1	69	67.1	2	4	68	0.00	29.835 
19:55	77.9	77.9	79.9	69	66.9	2	5	68	0.00	29.835 
20:00	77.7	77.7	79.6	69	66.7	2	6	90	0.00	29.840 
20:05	77.7	77.7	79.6	70	67.1	1	4	68	0.00	29.840 
20:10	77.6	77.6	79.5	69	66.6	1	4	68	0.00	29.840 
20:15	77.6	77.6	79.5	69	66.6	2	5	68	0.00	29.844 
20:20	77.4	77.4	79.2	69	66.4	1	3	68	0.00	29.844 
20:25	77.2	77.2	79.0	70	66.6	1	3	68	0.00	29.844 
20:30	77.0	77.0	78.8	71	66.9	1	4	68	0.00	29.848 
20:35	76.8	76.8	78.5	71	66.7	1	2	68	0.00	29.848 
20:40	76.5	76.5	78.1	72	66.8	1	3	68	0.00	29.848 
20:45	76.3	76.3	77.8	73	67.0	0	3	68	0.00	29.850 
20:50	76.1	76.1	77.6	73	66.8	0	2	68	0.00	29.850 
20:55	75.8	75.8	77.3	73	66.5	0	3	68	0.00	29.850 
21:00	75.6	75.6	77.0	73	66.3	0	2	68	0.00	29.849 
21:05	75.4	75.4	76.7	74	66.5	0	2	68	0.00	29.849 
21:10	75.4	75.4	76.7	74	66.5	0	1	68	0.00	29.849 
21:15	75.3	75.3	76.6	74	66.4	0	0	---	0.00	29.859 
21:20	75.1	75.1	76.4	74	66.2	0	1	68	0.00	29.859 
21:25	74.9	74.9	74.9	75	66.4	0	0	---	0.00	29.859 
21:30	74.7	74.7	74.7	76	66.6	0	0	---	0.00	29.868 
21:35	74.6	74.6	74.6	76	66.5	0	0	---	0.00	29.868 
21:40	74.2	74.2	74.2	77	66.5	0	0	---	0.00	29.868 
21:45	74.0	74.0	74.0	78	66.7	0	0	---	0.00	29.865 
21:50	73.9	73.9	73.9	80	67.3	0	2	68	0.00	29.865 
21:55	73.7	73.7	73.7	79	66.8	0	1	68	0.00	29.865 
22:00	73.5	73.5	73.5	79	66.6	0	1	68	0.00	29.866 
22:05	73.3	73.3	73.3	79	66.4	0	1	68	0.00	29.866 
22:10	73.2	73.2	73.2	79	66.3	0	1	68	0.00	29.866 
22:15	73.2	73.2	73.2	79	66.3	0	1	68	0.00	29.862 
22:20	73.0	73.0	73.0	79	66.1	0	1	68	0.00	29.862 
22:25	73.0	73.0	73.0	79	66.1	0	1	68	0.00	29.862 
22:30	72.8	72.8	72.8	80	66.3	0	2	68	0.00	29.862 
22:35	72.7	72.7	72.7	80	66.2	0	2	68	0.00	29.862 
22:40	72.5	72.5	72.5	80	66.0	0	3	68	0.00	29.862 
22:45	72.5	72.5	72.5	80	66.0	0	2	68	0.00	29.858 
22:50	72.3	72.3	72.3	79	65.4	0	3	68	0.00	29.858 
22:55	72.3	72.3	72.3	79	65.4	0	1	68	0.00	29.858 
23:00	72.1	72.1	72.1	79	65.2	0	2	68	0.00	29.861 
23:05	72.1	72.1	72.1	79	65.2	0	1	68	0.00	29.861 
23:10	72.0	72.0	72.0	79	65.1	0	2	68	0.00	29.861 
23:15	72.0	72.0	72.0	79	65.1	0	1	68	0.00	29.861 
23:20	71.8	71.8	71.8	79	64.9	0	2	68	0.00	29.861 
23:25	71.8	71.8	71.8	79	64.9	0	2	68	0.00	29.861 
23:30	71.8	71.8	71.8	79	64.9	0	1	68	0.00	29.865 
23:35	71.8	71.8	71.8	79	64.9	0	2	68	0.00	29.865 
23:40	71.6	71.6	71.6	79	64.7	0	1	68	0.00	29.865 
23:45	71.6	71.6	71.6	79	64.7	0	2	68	0.00	29.859 
23:50	71.5	71.5	71.5	79	64.6	0	1	68	0.00	29.859 
23:55	71.3	71.3	71.3	78	64.1	0	2	68	0.00	29.859 

CoCoRaHS
IN-AL-39
A2 Web Hosting
Creative Commons License
GoDaddy
search engine by freefind advanced

loaded 2018-11-13 17:08:58 • last modified 2010-11-18 10:43:29
Privacy PolicyDisclaimer
• wx.awcolley.com is powered by PmWiki v.2002016 •
• all content (unless otherwise noted) © 2018 A W Colley